createdAt,value
2022-09-09T00:01:37.417Z,0.90
2022-09-09T00:04:26.244Z,0.80
2022-09-09T00:07:05.099Z,0.80
2022-09-09T00:09:40.770Z,0.70
2022-09-09T00:12:20.973Z,0.73
2022-09-09T00:15:01.128Z,0.70
2022-09-09T00:17:48.688Z,0.80
2022-09-09T00:20:28.840Z,0.60
2022-09-09T00:23:07.398Z,0.60
2022-09-09T00:25:52.727Z,0.63
2022-09-09T00:28:27.793Z,0.70
2022-09-09T00:30:56.424Z,0.63
2022-09-09T00:33:25.542Z,0.50
2022-09-09T00:35:59.107Z,0.60
2022-09-09T00:38:40.788Z,0.60
2022-09-09T00:41:36.054Z,0.40
2022-09-09T00:44:36.112Z,0.50
2022-09-09T00:47:21.289Z,0.40
2022-09-09T00:49:52.063Z,0.50
2022-09-09T00:52:19.247Z,0.50
2022-09-09T00:55:10.074Z,0.50
2022-09-09T00:57:37.638Z,0.40
2022-09-09T01:00:16.103Z,0.50
2022-09-09T01:03:21.644Z,0.63
2022-09-09T01:06:04.276Z,0.50
2022-09-09T01:08:55.669Z,0.50
2022-09-09T01:11:28.987Z,0.57
2022-09-09T01:14:35.820Z,0.60
2022-09-09T01:17:33.436Z,0.60
2022-09-09T01:20:18.242Z,0.50
2022-09-09T01:22:58.344Z,0.50
2022-09-09T01:26:02.633Z,0.43
2022-09-09T01:28:30.525Z,0.53
2022-09-09T01:30:58.310Z,0.57
2022-09-09T01:33:25.378Z,0.63
2022-09-09T01:35:58.043Z,0.50
2022-09-09T01:38:25.994Z,0.50
2022-09-09T01:40:53.665Z,0.50
2022-09-09T01:43:24.530Z,0.43
2022-09-09T01:45:55.530Z,0.60
2022-09-09T01:48:24.308Z,0.47
2022-09-09T01:50:50.854Z,0.50
2022-09-09T01:53:20.067Z,0.60
2022-09-09T01:55:55.219Z,0.70
2022-09-09T01:58:48.528Z,0.50
2022-09-09T02:01:44.770Z,0.60
2022-09-09T02:04:29.384Z,0.60
2022-09-09T02:06:57.977Z,0.60
2022-09-09T02:09:26.707Z,0.70
2022-09-09T02:12:10.652Z,0.70
2022-09-09T02:14:42.718Z,0.60
2022-09-09T02:17:11.787Z,0.70
2022-09-09T02:19:45.438Z,0.70
2022-09-09T02:22:12.519Z,0.90
2022-09-09T02:24:41.066Z,0.60
2022-09-09T02:27:09.876Z,0.80
2022-09-09T02:29:42.196Z,0.50
2022-09-09T02:32:22.694Z,0.57
2022-09-09T02:34:57.717Z,0.80
2022-09-09T02:37:30.233Z,0.60
2022-09-09T02:39:56.989Z,0.60
2022-09-09T02:42:24.804Z,0.63
2022-09-09T02:44:51.352Z,0.70
2022-09-09T02:47:42.203Z,0.90
2022-09-09T02:50:12.720Z,1.00
2022-09-09T02:53:03.282Z,0.83
2022-09-09T02:56:14.507Z,0.70
2022-09-09T02:58:41.722Z,0.67
2022-09-09T03:01:09.639Z,0.70
2022-09-09T03:03:36.563Z,1.00
2022-09-09T03:06:03.301Z,0.77
2022-09-09T03:08:29.916Z,0.60
2022-09-09T03:10:59.080Z,0.70
2022-09-09T03:13:26.137Z,0.60
2022-09-09T03:15:52.768Z,0.70
2022-09-09T03:18:19.318Z,0.97
2022-09-09T03:20:49.373Z,0.70
2022-09-09T03:23:16.235Z,0.73
2022-09-09T03:25:49.948Z,0.70
2022-09-09T03:28:17.086Z,0.60
2022-09-09T03:30:43.785Z,0.60
2022-09-09T03:33:10.847Z,0.90
2022-09-09T03:35:37.381Z,0.90
2022-09-09T03:38:04.021Z,0.73
2022-09-09T03:40:31.897Z,0.80
2022-09-09T03:42:58.412Z,0.80
2022-09-09T03:45:25.000Z,0.80
2022-09-09T03:47:51.544Z,0.70
2022-09-09T03:50:19.312Z,0.70
2022-09-09T03:52:46.901Z,0.90
2022-09-09T03:55:13.480Z,0.80
2022-09-09T03:57:40.010Z,0.70
2022-09-09T04:00:08.785Z,0.80
2022-09-09T04:02:35.488Z,0.70
2022-09-09T04:05:02.048Z,0.87
2022-09-09T04:07:29.011Z,1.03
2022-09-09T04:09:55.561Z,1.00
2022-09-09T04:12:23.278Z,0.80
2022-09-09T04:14:49.973Z,0.80
2022-09-09T04:17:16.898Z,0.73
2022-09-09T04:19:43.697Z,0.97
2022-09-09T04:22:10.598Z,1.17
2022-09-09T04:24:37.165Z,1.00
2022-09-09T04:27:03.820Z,1.07
2022-09-09T04:29:30.367Z,1.00
2022-09-09T04:31:56.934Z,0.90
2022-09-09T04:34:23.556Z,1.10
2022-09-09T04:36:50.091Z,1.17
2022-09-09T04:39:16.634Z,1.00
2022-09-09T04:41:43.174Z,1.13
2022-09-09T04:44:10.962Z,1.20
2022-09-09T04:46:37.535Z,1.17
2022-09-09T04:49:04.118Z,1.60
2022-09-09T04:51:32.097Z,2.30
2022-09-09T04:53:58.616Z,1.30
2022-09-09T04:56:27.719Z,1.20
2022-09-09T04:58:55.466Z,1.70
2022-09-09T05:01:23.060Z,1.30
2022-09-09T05:03:50.078Z,1.53
2022-09-09T05:06:19.172Z,1.33
2022-09-09T05:08:46.233Z,1.60
2022-09-09T05:11:30.797Z,1.50
2022-09-09T05:13:57.893Z,1.70
2022-09-09T05:16:25.113Z,1.73
2022-09-09T05:18:52.101Z,1.73
2022-09-09T05:21:20.461Z,1.40
2022-09-09T05:23:47.296Z,1.53
2022-09-09T05:26:17.857Z,1.40
2022-09-09T05:28:45.317Z,1.10
2022-09-09T05:31:13.696Z,0.90
2022-09-09T05:33:43.913Z,1.30
2022-09-09T05:36:16.175Z,1.10
2022-09-09T05:38:43.113Z,1.00
2022-09-09T05:41:12.087Z,1.27
2022-09-09T05:43:39.518Z,1.10
2022-09-09T05:46:08.861Z,0.93
2022-09-09T05:48:38.260Z,1.03
2022-09-09T05:51:07.746Z,1.27
2022-09-09T05:53:37.057Z,1.10
2022-09-09T05:56:11.298Z,1.00
2022-09-09T05:58:39.141Z,1.10
2022-09-09T06:01:11.097Z,1.20
2022-09-09T06:03:40.403Z,1.20
2022-09-09T06:06:09.457Z,0.90
2022-09-09T06:08:40.701Z,1.07
2022-09-09T06:11:09.827Z,0.83
2022-09-09T06:13:38.335Z,1.00
2022-09-09T06:16:05.475Z,1.33
2022-09-09T06:18:32.092Z,0.80
2022-09-09T06:21:04.558Z,0.87
2022-09-09T06:23:31.954Z,0.70
2022-09-09T06:26:19.953Z,1.07
2022-09-09T06:28:48.540Z,1.23
2022-09-09T06:31:25.850Z,0.80
2022-09-09T06:33:56.031Z,0.93
2022-09-09T06:36:31.919Z,0.90
2022-09-09T06:38:59.448Z,0.90
2022-09-09T06:41:29.243Z,0.90
2022-09-09T06:43:58.803Z,0.90
2022-09-09T06:46:28.746Z,0.87
2022-09-09T06:48:56.952Z,1.07
2022-09-09T06:51:24.976Z,1.03
2022-09-09T06:53:54.576Z,0.83
2022-09-09T06:56:25.506Z,0.77
2022-09-09T06:58:53.378Z,1.17
2022-09-09T07:01:22.578Z,1.10
2022-09-09T07:03:51.795Z,0.70
2022-09-09T07:06:24.503Z,1.10
2022-09-09T07:08:59.869Z,1.03
2022-09-09T07:11:29.390Z,0.97
2022-09-09T07:13:57.747Z,0.73
2022-09-09T07:16:25.578Z,1.10
2022-09-09T07:18:53.552Z,1.10
2022-09-09T07:21:21.842Z,0.97
2022-09-09T07:23:48.378Z,1.67
2022-09-09T07:26:17.457Z,1.30
2022-09-09T07:28:44.307Z,1.33
2022-09-09T07:31:17.290Z,1.40
2022-09-09T07:33:44.615Z,1.40
2022-09-09T07:36:18.429Z,1.57
2022-09-09T07:38:51.035Z,1.70
2022-09-09T07:41:23.844Z,1.40
2022-09-09T07:43:51.578Z,1.40
2022-09-09T07:46:20.322Z,1.13
2022-09-09T07:48:52.033Z,1.47
2022-09-09T07:51:30.634Z,1.23
2022-09-09T07:54:05.928Z,1.30
2022-09-09T07:56:33.720Z,1.33
2022-09-09T07:59:00.823Z,1.70
2022-09-09T08:01:33.468Z,1.40
2022-09-09T08:04:02.278Z,1.33
2022-09-09T08:06:31.368Z,2.30
2022-09-09T08:08:57.917Z,1.67
2022-09-09T08:11:26.766Z,1.20
2022-09-09T08:13:56.094Z,1.50
2022-09-09T08:16:27.308Z,1.10
2022-09-09T08:18:57.399Z,1.20
2022-09-09T08:21:29.452Z,2.37
2022-09-09T08:23:58.248Z,1.47
2022-09-09T08:26:35.205Z,1.90
2022-09-09T08:29:03.392Z,1.37
2022-09-09T08:31:41.866Z,1.20
2022-09-09T08:34:08.983Z,0.90
2022-09-09T08:36:43.202Z,1.37
2022-09-09T08:39:12.013Z,1.03
2022-09-09T08:42:17.096Z,1.03
2022-09-09T08:45:36.393Z,1.00
2022-09-09T08:48:30.758Z,1.30
2022-09-09T08:51:02.751Z,1.27
2022-09-09T08:53:38.894Z,1.37
2022-09-09T08:56:13.937Z,1.20
2022-09-09T08:59:01.511Z,1.30
2022-09-09T09:01:47.296Z,0.90
2022-09-09T09:04:52.225Z,1.10
2022-09-09T09:07:43.621Z,1.23
2022-09-09T09:10:40.654Z,0.90
2022-09-09T09:13:18.983Z,1.30
2022-09-09T09:15:51.275Z,1.07
2022-09-09T09:18:18.536Z,1.40
2022-09-09T09:21:26.909Z,1.23
2022-09-09T09:23:59.019Z,1.27
2022-09-09T09:26:32.297Z,1.17
2022-09-09T09:29:01.568Z,1.27
2022-09-09T09:31:28.199Z,1.07
2022-09-09T09:33:56.825Z,0.93
2022-09-09T09:36:33.822Z,1.20
2022-09-09T09:41:49.820Z,1.00
2022-09-09T09:44:33.404Z,1.10
2022-09-09T09:47:11.931Z,0.93
2022-09-09T09:49:38.455Z,1.00
2022-09-09T09:52:07.033Z,1.07
2022-09-09T09:54:42.402Z,1.17
2022-09-09T09:57:11.832Z,0.90
2022-09-09T09:59:40.989Z,1.10
2022-09-09T10:02:21.934Z,1.17
2022-09-09T10:04:48.685Z,1.10
2022-09-09T10:07:21.223Z,1.10
2022-09-09T10:09:56.564Z,1.10
2022-09-09T10:12:27.032Z,1.00
2022-09-09T10:15:31.582Z,1.13
2022-09-09T10:18:17.123Z,1.30
2022-09-09T10:21:16.848Z,1.30
2022-09-09T10:23:51.217Z,1.40
2022-09-09T10:26:30.809Z,1.40
2022-09-09T10:29:18.155Z,1.60
2022-09-09T10:32:03.995Z,1.47
2022-09-09T10:35:03.657Z,1.50
2022-09-09T10:37:49.194Z,1.00
2022-09-09T10:40:46.392Z,1.40
2022-09-09T10:44:00.430Z,1.50
2022-09-09T10:46:36.906Z,2.50
2022-09-09T10:49:21.978Z,3.00
2022-09-09T10:52:11.846Z,4.30
2022-09-09T10:55:15.184Z,4.90
2022-09-09T10:57:50.363Z,2.83
2022-09-09T11:00:23.875Z,3.60
2022-09-09T11:03:27.500Z,3.80
2022-09-09T11:05:59.214Z,5.70
2022-09-09T11:08:30.619Z,3.73
2022-09-09T11:11:20.115Z,2.30
2022-09-09T11:13:52.816Z,2.37
2022-09-09T11:16:22.641Z,1.80
2022-09-09T11:18:50.131Z,1.43
2022-09-09T11:21:47.219Z,1.60
2022-09-09T11:24:29.253Z,1.40
2022-09-09T11:27:03.960Z,1.20
2022-09-09T11:29:36.300Z,1.00
2022-09-09T11:32:11.063Z,1.00
2022-09-09T11:34:51.566Z,1.43
2022-09-09T11:37:30.197Z,1.10
2022-09-09T11:40:10.618Z,0.90
2022-09-09T11:42:37.397Z,1.20
2022-09-09T11:45:31.151Z,0.90
2022-09-09T11:48:00.299Z,0.73
2022-09-09T11:50:26.780Z,1.20
2022-09-09T11:53:05.857Z,1.00
2022-09-09T11:55:37.812Z,1.13
2022-09-09T11:58:14.766Z,1.10
2022-09-09T12:00:45.223Z,1.00
2022-09-09T12:03:32.108Z,0.87
2022-09-09T12:05:59.817Z,1.30
2022-09-09T12:08:29.225Z,1.10
2022-09-09T12:11:04.229Z,1.10
2022-09-09T12:13:32.290Z,1.40
2022-09-09T12:16:00.460Z,1.10
2022-09-09T12:18:37.643Z,1.07
2022-09-09T12:21:36.711Z,0.90
2022-09-09T12:24:12.276Z,1.10
2022-09-09T12:26:49.849Z,1.07
2022-09-09T12:29:19.489Z,0.87
2022-09-09T12:32:10.909Z,1.30
2022-09-09T12:35:02.075Z,1.20
2022-09-09T12:37:36.649Z,1.10
2022-09-09T12:40:20.249Z,1.20
2022-09-09T12:42:47.081Z,1.10
2022-09-09T12:45:21.401Z,1.30
2022-09-09T12:47:52.899Z,1.27
2022-09-09T12:50:26.597Z,1.03
2022-09-09T12:52:59.396Z,1.00
2022-09-09T12:55:31.024Z,1.43
2022-09-09T12:58:00.302Z,1.00
2022-09-09T13:00:27.950Z,1.07
2022-09-09T13:03:19.763Z,1.00
2022-09-09T13:05:47.729Z,1.17
2022-09-09T13:08:15.976Z,1.10
2022-09-09T13:10:53.746Z,1.30
2022-09-09T13:13:24.551Z,1.30
2022-09-09T13:15:57.280Z,0.83
2022-09-09T13:18:27.768Z,1.20
2022-09-09T13:20:54.591Z,1.30
2022-09-09T13:23:21.967Z,1.70
2022-09-09T13:26:00.920Z,0.63
2022-09-09T13:28:33.733Z,0.97
2022-09-09T13:31:07.783Z,0.70
2022-09-09T13:33:38.182Z,0.80
2022-09-09T13:36:08.409Z,0.60
2022-09-09T13:39:00.525Z,0.70
2022-09-09T13:41:31.259Z,0.70
2022-09-09T13:43:58.391Z,0.70
2022-09-09T13:46:36.860Z,0.90
2022-09-09T13:49:20.849Z,0.90
2022-09-09T13:51:51.546Z,1.03
2022-09-09T13:54:20.531Z,0.67
2022-09-09T13:56:47.834Z,0.70
2022-09-09T13:59:20.761Z,0.87
2022-09-09T14:01:47.588Z,0.60
2022-09-09T14:04:14.338Z,0.87
2022-09-09T14:06:41.039Z,0.93
2022-09-09T14:09:12.747Z,0.80
2022-09-09T14:11:39.582Z,0.80
2022-09-09T14:14:06.296Z,0.80
2022-09-09T14:16:33.625Z,0.83
2022-09-09T14:19:00.288Z,0.70
2022-09-09T14:21:28.364Z,0.90
2022-09-09T14:23:55.805Z,1.30
2022-09-09T14:26:22.796Z,0.90
2022-09-09T14:28:55.458Z,1.20
2022-09-09T14:31:23.184Z,0.90
2022-09-09T14:33:50.990Z,1.03
2022-09-09T14:36:17.801Z,1.10
2022-09-09T14:38:44.343Z,1.53
2022-09-09T14:41:13.482Z,1.00
2022-09-09T14:43:40.840Z,1.23
2022-09-09T14:46:08.927Z,1.07
2022-09-09T14:48:36.178Z,0.90
2022-09-09T14:51:20.456Z,1.00
2022-09-09T14:53:47.622Z,0.97
2022-09-09T14:56:19.615Z,0.80
2022-09-09T14:58:47.183Z,1.00
2022-09-09T15:01:16.997Z,1.10
2022-09-09T15:03:49.259Z,0.90
2022-09-09T15:06:16.393Z,1.00
2022-09-09T15:08:45.020Z,0.87
2022-09-09T15:11:12.569Z,1.00
2022-09-09T15:13:41.352Z,0.93
2022-09-09T15:16:16.740Z,1.10
2022-09-09T15:18:43.962Z,1.83
2022-09-09T15:21:15.328Z,1.73
2022-09-09T15:23:42.700Z,1.40
2022-09-09T15:26:10.083Z,1.87
2022-09-09T15:28:38.458Z,1.60
2022-09-09T15:31:15.217Z,1.63
2022-09-09T15:33:42.441Z,1.30
2022-09-09T15:36:15.524Z,0.77
2022-09-09T15:38:42.260Z,0.83
2022-09-09T15:41:08.790Z,0.83
2022-09-09T15:43:35.368Z,0.93
2022-09-09T15:46:18.756Z,0.60
2022-09-09T15:48:47.400Z,0.93
2022-09-09T15:51:40.110Z,0.80
2022-09-09T15:54:02.706Z,0.90
2022-09-09T15:56:33.486Z,0.90
2022-09-09T15:59:02.190Z,1.87
2022-09-09T16:01:28.827Z,1.20
2022-09-09T16:03:55.480Z,1.10
2022-09-09T16:06:24.109Z,1.60
2022-09-09T16:08:52.616Z,0.90
2022-09-09T16:11:20.845Z,1.20
2022-09-09T16:13:51.229Z,1.10
2022-09-09T16:16:20.813Z,1.50
2022-09-09T16:18:49.716Z,0.93
2022-09-09T16:21:21.983Z,0.80
2022-09-09T16:23:50.202Z,0.90
2022-09-09T16:26:18.507Z,0.70
2022-09-09T16:28:47.232Z,0.70
2022-09-09T16:31:20.081Z,0.60
2022-09-09T16:33:48.357Z,0.60
2022-09-09T16:36:17.509Z,0.60
2022-09-09T16:38:44.126Z,1.27
2022-09-09T16:41:12.360Z,0.73
2022-09-09T16:43:39.597Z,0.70
2022-09-09T16:46:18.040Z,0.70
2022-09-09T16:48:46.050Z,0.80
2022-09-09T16:51:18.936Z,0.90
2022-09-09T16:53:45.941Z,0.60
2022-09-09T16:56:16.155Z,0.80
2022-09-09T16:58:46.677Z,0.93
2022-09-09T17:01:14.958Z,0.60
2022-09-09T17:03:42.362Z,0.80
2022-09-09T17:06:13.475Z,0.90
2022-09-09T17:08:42.293Z,0.70
2022-09-09T17:11:14.823Z,0.70
2022-09-09T17:13:45.130Z,0.70
2022-09-09T17:16:13.060Z,0.63
2022-09-09T17:18:40.914Z,0.93
2022-09-09T17:21:11.517Z,0.90
2022-09-09T17:23:38.969Z,1.00
2022-09-09T17:26:08.526Z,1.07
2022-09-09T17:28:36.467Z,0.70
2022-09-09T17:31:05.514Z,0.90
2022-09-09T17:33:43.266Z,0.70
2022-09-09T17:36:29.633Z,1.03
2022-09-09T17:38:56.382Z,1.00
2022-09-09T17:41:25.691Z,0.90
2022-09-09T17:43:52.825Z,0.80
2022-09-09T17:46:25.817Z,1.10
2022-09-09T17:48:56.756Z,1.10
2022-09-09T17:51:25.799Z,1.10
2022-09-09T17:53:55.612Z,1.00
2022-09-09T17:56:26.035Z,1.00
2022-09-09T17:58:53.673Z,1.43
2022-09-09T18:01:23.595Z,1.20
2022-09-09T18:03:51.505Z,1.30
2022-09-09T18:06:20.929Z,1.40
2022-09-09T18:08:54.220Z,1.30
2022-09-09T18:11:22.346Z,1.20
2022-09-09T18:13:54.989Z,1.27
2022-09-09T18:16:24.769Z,1.80
2022-09-09T18:18:52.561Z,1.47
2022-09-09T18:21:20.339Z,1.50
2022-09-09T18:23:52.130Z,1.27
2022-09-09T18:26:22.062Z,1.20
2022-09-09T18:28:51.008Z,1.70
2022-09-09T18:31:20.763Z,1.30
2022-09-09T18:33:53.194Z,2.00
2022-09-09T18:36:22.696Z,1.83
2022-09-09T18:38:49.650Z,1.50
2022-09-09T18:41:17.661Z,1.57
2022-09-09T18:43:45.204Z,1.77
2022-09-09T18:46:12.858Z,1.90
2022-09-09T18:48:39.627Z,2.13
2022-09-09T18:51:08.530Z,1.40
2022-09-09T18:53:36.860Z,1.90
2022-09-09T18:56:06.211Z,1.60
2022-09-09T18:58:34.445Z,1.80
2022-09-09T19:01:02.131Z,1.60
2022-09-09T19:03:30.514Z,1.80
2022-09-09T19:06:12.412Z,1.50
2022-09-09T19:08:40.779Z,2.03
2022-09-09T19:11:10.189Z,1.47
2022-09-09T19:13:37.286Z,1.40
2022-09-09T19:16:12.919Z,1.87
2022-09-09T19:18:40.313Z,1.63
2022-09-09T19:21:17.957Z,1.40
2022-09-09T19:23:49.489Z,1.50
2022-09-09T19:26:18.719Z,1.90
2022-09-09T19:28:46.969Z,1.37
2022-09-09T19:31:17.542Z,2.03
2022-09-09T19:33:47.022Z,1.80
2022-09-09T19:36:17.014Z,1.67
2022-09-09T19:38:45.498Z,1.43
2022-09-09T19:41:15.372Z,1.47
2022-09-09T19:43:42.001Z,1.90
2022-09-09T19:46:14.336Z,1.63
2022-09-09T19:48:41.807Z,1.93
2022-09-09T19:51:12.161Z,1.57
2022-09-09T19:53:41.668Z,1.60
2022-09-09T19:56:09.312Z,2.07
2022-09-09T19:58:39.804Z,1.70
2022-09-09T20:01:18.017Z,1.93
2022-09-09T20:03:47.656Z,1.50
2022-09-09T20:06:16.945Z,2.33
2022-09-09T20:08:48.387Z,1.70
2022-09-09T20:11:16.873Z,1.73
2022-09-09T20:13:44.304Z,1.90
2022-09-09T20:16:17.273Z,1.87
2022-09-09T20:18:51.519Z,1.93
2022-09-09T20:21:31.836Z,2.30
2022-09-09T20:24:00.925Z,1.60
2022-09-09T20:26:30.836Z,1.83
2022-09-09T20:28:57.978Z,2.20
2022-09-09T20:31:27.053Z,2.07
2022-09-09T20:33:54.508Z,2.17
2022-09-09T20:36:26.476Z,2.50
2022-09-09T20:39:01.491Z,1.70
2022-09-09T20:41:33.637Z,1.50
2022-09-09T20:44:09.211Z,1.60
2022-09-09T20:46:38.840Z,1.40
2022-09-09T20:49:09.724Z,1.30
2022-09-09T20:51:37.007Z,1.10
2022-09-09T20:54:10.460Z,1.30
2022-09-09T20:56:40.675Z,1.40
2022-09-09T20:59:11.287Z,1.40
2022-09-09T21:01:38.843Z,1.27
2022-09-09T21:04:06.142Z,1.27
2022-09-09T21:06:32.677Z,1.40
2022-09-09T21:08:59.303Z,1.20
2022-09-09T21:11:25.876Z,1.87
2022-09-09T21:13:52.874Z,1.10
2022-09-09T21:16:20.990Z,1.30
2022-09-09T21:18:48.873Z,1.27
2022-09-09T21:21:19.094Z,1.27
2022-09-09T21:23:45.838Z,1.07
2022-09-09T21:26:12.881Z,1.20
2022-09-09T21:28:39.496Z,1.00
2022-09-09T21:31:06.789Z,2.00
2022-09-09T21:33:34.441Z,1.63
2022-09-09T21:36:06.019Z,1.37
2022-09-09T21:38:33.344Z,1.10
2022-09-09T21:41:05.165Z,1.30
2022-09-09T21:43:32.234Z,1.17
2022-09-09T21:45:59.216Z,2.53
2022-09-09T21:48:28.445Z,1.10
2022-09-09T21:50:55.191Z,0.90
2022-09-09T21:53:21.761Z,1.17
2022-09-09T21:55:48.869Z,1.33
2022-09-09T21:58:16.549Z,0.90
2022-09-09T22:00:45.460Z,1.00
2022-09-09T22:03:14.839Z,1.10
2022-09-09T22:05:43.080Z,0.97
2022-09-09T22:08:11.895Z,1.10
2022-09-09T22:10:40.930Z,1.20
2022-09-09T22:13:08.300Z,1.10
2022-09-09T22:15:36.138Z,1.40
2022-09-09T22:18:04.096Z,1.10
2022-09-09T22:20:35.427Z,1.40
2022-09-09T22:23:01.981Z,1.07
2022-09-09T22:25:33.149Z,1.07
2022-09-09T22:27:59.659Z,1.00
2022-09-09T22:30:26.646Z,1.07
2022-09-09T22:32:53.155Z,0.93
2022-09-09T22:35:19.689Z,1.10
2022-09-09T22:37:46.365Z,1.13
2022-09-09T22:40:14.168Z,1.10
2022-09-09T22:42:43.656Z,1.50
2022-09-09T22:45:11.523Z,1.00
2022-09-09T22:47:42.292Z,1.10
2022-09-09T22:50:10.045Z,1.10
2022-09-09T22:52:36.974Z,1.27
2022-09-09T22:55:03.677Z,0.97
2022-09-09T22:57:31.017Z,1.10
2022-09-09T22:59:58.952Z,1.00
2022-09-09T23:02:27.073Z,1.20
2022-09-09T23:04:54.022Z,1.03
2022-09-09T23:07:20.999Z,1.50
2022-09-09T23:09:47.751Z,1.17
2022-09-09T23:12:14.739Z,1.10
2022-09-09T23:14:41.754Z,0.97
2022-09-09T23:17:08.805Z,1.27
2022-09-09T23:19:37.028Z,1.10
2022-09-09T23:22:03.640Z,0.87
2022-09-09T23:24:30.155Z,1.10
2022-09-09T23:26:56.676Z,1.07
2022-09-09T23:29:23.499Z,0.60
2022-09-09T23:31:50.057Z,1.00
2022-09-09T23:34:16.612Z,1.03
2022-09-09T23:36:43.351Z,0.97
2022-09-09T23:39:13.001Z,0.90
2022-09-09T23:41:40.178Z,1.00
2022-09-09T23:44:07.373Z,1.37
2022-09-09T23:46:35.210Z,0.90
2022-09-09T23:49:02.785Z,0.97
2022-09-09T23:51:30.945Z,0.80
2022-09-09T23:54:00.317Z,0.80
2022-09-09T23:56:29.435Z,1.00
2022-09-09T23:58:56.202Z,0.90
